createdAt,value
2018-07-14T00:04:10.901Z,23.90
2018-07-14T00:14:15.616Z,23.80
2018-07-14T00:24:20.319Z,23.80
2018-07-14T00:34:25.063Z,23.80
2018-07-14T00:44:29.834Z,23.80
2018-07-14T00:54:34.814Z,23.70
2018-07-14T01:04:40.111Z,23.70
2018-07-14T01:14:45.090Z,23.70
2018-07-14T01:24:49.765Z,23.70
2018-07-14T01:34:54.475Z,23.60
2018-07-14T01:44:59.366Z,23.60
2018-07-14T01:55:04.148Z,23.60
2018-07-14T02:05:09.315Z,23.60
2018-07-14T02:15:13.998Z,23.60
2018-07-14T02:25:18.936Z,23.60
2018-07-14T02:35:23.836Z,23.60
2018-07-14T02:45:28.631Z,23.50
2018-07-14T03:05:38.263Z,23.50
2018-07-14T03:15:42.955Z,23.50
2018-07-14T03:25:49.173Z,23.50
2018-07-14T03:35:54.361Z,23.50
2018-07-14T03:45:59.157Z,23.50
2018-07-14T04:06:08.396Z,23.40
2018-07-14T04:16:13.073Z,23.40
2018-07-14T04:26:18.742Z,23.40
2018-07-14T04:36:23.459Z,23.40
2018-07-14T04:56:32.512Z,23.40
2018-07-14T05:06:37.214Z,23.40
2018-07-14T05:16:42.162Z,23.40
2018-07-14T05:26:46.954Z,23.40
2018-07-14T05:46:56.034Z,23.30
2018-07-14T05:57:03.208Z,23.30
2018-07-14T06:07:08.080Z,23.40
2018-07-14T06:17:12.966Z,23.30
2018-07-14T06:27:18.418Z,23.40
2018-07-14T06:37:23.651Z,23.40
2018-07-14T06:47:28.818Z,23.40
2018-07-14T06:57:34.375Z,23.40
2018-07-14T07:17:44.736Z,23.50
2018-07-14T07:27:50.246Z,23.40
2018-07-14T07:37:55.045Z,23.40
2018-07-14T07:58:06.243Z,23.50
2018-07-14T08:08:11.005Z,23.50
2018-07-14T08:18:16.656Z,23.50
2018-07-14T08:28:21.382Z,23.50
2018-07-14T08:38:26.390Z,23.50
2018-07-14T08:48:31.123Z,23.50
2018-07-14T08:58:36.653Z,23.50
2018-07-14T09:08:42.184Z,23.50
2018-07-14T09:18:48.171Z,23.50
2018-07-14T09:28:53.956Z,23.70
2018-07-14T09:49:07.679Z,23.80
2018-07-14T09:59:14.101Z,23.90
2018-07-14T10:09:18.803Z,23.90
2018-07-14T10:19:24.507Z,23.90
2018-07-14T10:29:31.772Z,23.90
2018-07-14T10:39:36.931Z,23.90
2018-07-14T10:49:41.784Z,23.90
2018-07-14T10:59:46.536Z,24.00
2018-07-14T11:09:51.603Z,23.90
2018-07-14T11:19:56.257Z,23.90
2018-07-14T11:30:01.322Z,23.90
2018-07-14T11:40:06.955Z,23.90
2018-07-14T11:50:11.903Z,23.90
2018-07-14T12:00:16.556Z,23.90
2018-07-14T12:10:21.092Z,23.90
2018-07-14T12:20:25.853Z,24.00
2018-07-14T12:30:30.855Z,24.00
2018-07-14T12:40:35.720Z,23.90
2018-07-14T12:50:41.298Z,24.00
2018-07-14T13:00:46.516Z,24.00
2018-07-14T13:20:55.670Z,24.00
2018-07-14T13:31:00.296Z,24.00
2018-07-14T13:41:04.848Z,24.10
2018-07-14T13:51:09.693Z,24.10
2018-07-14T14:01:14.395Z,24.20
2018-07-14T14:11:19.313Z,24.20
2018-07-14T14:21:24.010Z,24.20
2018-07-14T14:31:28.932Z,24.20
2018-07-14T14:41:33.599Z,24.30
2018-07-14T14:51:38.366Z,24.20
2018-07-14T15:01:43.050Z,24.20
2018-07-14T15:11:48.601Z,24.20
2018-07-14T15:21:53.243Z,24.20
2018-07-14T15:42:03.017Z,24.30
2018-07-14T15:52:08.344Z,24.30
2018-07-14T16:02:13.184Z,24.40
2018-07-14T16:12:17.960Z,24.50
2018-07-14T16:22:22.633Z,24.50
2018-07-14T16:32:27.339Z,24.50
2018-07-14T16:42:32.000Z,24.50
2018-07-14T16:52:36.806Z,24.50
2018-07-14T17:02:42.652Z,24.50
2018-07-14T17:12:47.332Z,24.40
2018-07-14T17:22:51.931Z,24.50
2018-07-14T17:32:56.696Z,24.50
2018-07-14T17:43:01.371Z,24.40
2018-07-14T17:53:06.052Z,24.40
2018-07-14T18:03:10.763Z,24.30
2018-07-14T18:13:15.504Z,24.30
2018-07-14T18:23:20.183Z,24.30
2018-07-14T18:33:24.983Z,24.30
2018-07-14T18:53:34.093Z,24.30
2018-07-14T19:03:39.302Z,24.30
2018-07-14T19:13:44.082Z,24.30
2018-07-14T19:23:49.176Z,24.30
2018-07-14T19:33:53.848Z,24.30
2018-07-14T19:43:58.424Z,24.30
2018-07-14T19:54:03.115Z,24.20
2018-07-14T20:04:07.764Z,24.30
2018-07-14T20:14:12.402Z,24.30
2018-07-14T20:24:16.990Z,24.20
2018-07-14T20:34:21.675Z,24.20
2018-07-14T20:44:26.480Z,24.20
2018-07-14T20:54:31.163Z,24.20
2018-07-14T21:04:35.815Z,24.10
2018-07-14T21:14:40.533Z,24.10
2018-07-14T21:24:45.179Z,24.20
2018-07-14T21:34:51.006Z,24.10
2018-07-14T21:44:55.670Z,24.10
2018-07-14T21:55:00.311Z,24.10
2018-07-14T22:05:05.130Z,24.10
2018-07-14T22:15:09.743Z,24.00
2018-07-14T22:25:14.392Z,24.00
2018-07-14T22:35:19.166Z,24.00
2018-07-14T22:45:23.956Z,24.00
2018-07-14T22:55:28.644Z,24.00
2018-07-14T23:05:33.532Z,24.10
2018-07-14T23:15:38.498Z,24.00
2018-07-14T23:25:43.521Z,24.00
2018-07-14T23:35:48.258Z,24.00
2018-07-14T23:45:53.037Z,24.00
